Main page
METAR-TAF:

METAR-TAF

Airports :

Sri Guru Ram Dass Jee International Airport

Amritsar, India

latitude: 31-38N, longitude: 074-52E, elevation: 229 m

Current weather observation

The report was made 54 minutes ago, at 21:30 UTC
Calm wind
Temperature 23°C
Humidity 69%
Pressure 1000 hPa
Visibility: 3500 m
haze

METAR: VIAR 162130Z 00000KT 3500 HZ NSC 23/17 Q1000 NOSIG

Time: 03:54 (22:24 UTC)

Forecast

The report was made 2 hours and 24 minutes ago, at 20:00 UTC
Forecast valid from 16 at 21 UTC to 17 at 06 UTC
Wind 5 kt from the North/Northwest
Visibility: 3000 m
Few clouds at a height of 3000 ft
haze
Becoming
from 17 at 03 UTC to 17 at 05 UTC
Wind 8 kt from the North/Northeast
Visibility: 5000 m
Scattered clouds at a height of 3000 ft
Broken clouds at a height of 9000 ft
haze, light rain

TAF: VIAR 162000Z 1621/1706 34005KT 3000 HZ FEW030 BECMG 1703/1705 03008KT 5000 HZ -RA SCT030 BKN090

Weather observations and forecasts of more than 4000 airports (METAR and TAF reports).

The available stations are represented by yellow and red dots on the map.

Hover mouse over dot to see the name of the station.

Then click to see weather observations and forecasts.

To change the map : click on the green buttons with a black cross to zoom in, on the green button with a dash to zoom out, or on the green arrows for adjacent maps.


METAR-TAF: